Time;durP1;ratioP1;P1;durP2;ratioP2;P2;SDS_P1;SDS_P2;PMS_P1;PMS_P2;Temp;Humidity;BMP_temperature;BMP_pressure;BME280_temperature;BME280_humidity;BME280_pressure;Samples;Min_cycle;Max_cycle;Signal;HPM_P1;HPM_P2
2022/04/25 00:01:17;;;;;;;14.52;13.00;;;10.00;99.90;;;;;;5024024;28;20140;-80
2022/04/25 00:03:44;;;;;;;17.95;13.85;;;10.00;99.90;;;;;;5028079;28;20053;-80
2022/04/25 00:06:09;;;;;;;16.10;13.20;;;10.00;99.90;;;;;;5029200;28;20047;-80
2022/04/25 00:08:35;;;;;;;17.95;14.20;;;10.00;99.90;;;;;;5031168;28;20049;-81
2022/04/25 00:11:01;;;;;;;16.90;13.75;;;9.90;99.90;;;;;;5033175;28;20041;-80
2022/04/25 00:13:27;;;;;;;15.85;14.07;;;9.90;99.90;;;;;;5029213;28;20045;-80
2022/04/25 00:15:54;;;;;;;17.73;13.55;;;9.90;99.90;;;;;;5016013;28;20045;-80
2022/04/25 00:18:21;;;;;;;20.35;14.93;;;9.90;99.90;;;;;;5030615;28;20076;-80
2022/04/25 00:20:47;;;;;;;16.83;14.85;;;9.90;99.90;;;;;;5031711;28;20049;-80
2022/04/25 00:23:13;;;;;;;18.48;15.20;;;9.90;99.90;;;;;;5014663;28;20041;-80
2022/04/25 00:25:39;;;;;;;18.67;15.23;;;9.90;99.90;;;;;;5030279;28;20037;-80
2022/04/25 00:28:05;;;;;;;17.23;15.43;;;9.90;99.90;;;;;;5031307;28;20049;-81
2022/04/25 00:30:31;;;;;;;19.88;15.05;;;9.90;99.90;;;;;;5012344;28;20052;-80
2022/04/25 00:32:58;;;;;;;18.63;15.20;;;9.90;99.90;;;;;;5020776;28;20417;-80
2022/04/25 00:35:25;;;;;;;21.65;16.33;;;9.90;99.90;;;;;;5030152;28;20041;-80
2022/04/25 00:37:51;;;;;;;21.77;16.73;;;9.90;99.90;;;;;;5025932;28;20069;-80
2022/04/25 00:40:22;;;;;;;18.10;15.90;;;9.90;99.90;;;;;;5010369;28;20421;-80
2022/04/25 00:42:48;;;;;;;20.08;15.75;;;9.90;99.90;;;;;;5029244;28;20045;-80
2022/04/25 00:45:14;;;;;;;19.10;15.32;;;9.90;99.90;;;;;;5024930;28;20041;-81
2022/04/25 00:47:41;;;;;;;19.92;15.88;;;9.90;99.90;;;;;;5025517;28;20061;-80
2022/04/25 00:50:08;;;;;;;20.65;15.90;;;9.90;99.90;;;;;;5031364;28;20057;-81
2022/04/25 00:52:34;;;;;;;18.48;16.52;;;9.90;99.90;;;;;;5030989;28;20053;-80
2022/04/25 00:55:02;;;;;;;19.17;16.50;;;9.90;99.90;;;;;;5013167;28;20100;-81
2022/04/25 00:57:31;;;;;;;21.92;16.80;;;9.80;99.90;;;;;;5027958;28;20556;-80
2022/04/25 00:59:57;;;;;;;22.92;16.90;;;9.80;99.90;;;;;;5027751;28;20037;-80
2022/04/25 01:02:26;;;;;;;19.88;16.73;;;9.80;99.90;;;;;;5030199;28;20046;-81
2022/04/25 01:04:54;;;;;;;21.58;17.27;;;9.70;99.90;;;;;;5028786;28;20586;-80
2022/04/25 01:07:20;;;;;;;20.80;17.25;;;9.70;99.90;;;;;;5026846;28;20060;-80
2022/04/25 01:09:46;;;;;;;20.85;16.77;;;9.70;99.90;;;;;;5028493;28;20041;-80
2022/04/25 01:12:12;;;;;;;22.05;18.08;;;9.60;99.90;;;;;;5021054;28;20404;-80
2022/04/25 01:14:38;;;;;;;23.50;18.58;;;9.60;99.90;;;;;;5011668;28;20037;-80
2022/04/25 01:17:04;;;;;;;22.52;17.23;;;9.60;99.90;;;;;;5011898;28;20049;-80
2022/04/25 01:19:30;;;;;;;23.58;18.52;;;9.50;99.90;;;;;;5030191;28;20132;-80
2022/04/25 01:22:02;;;;;;;20.90;18.48;;;9.50;99.90;;;;;;5019103;28;20140;-80
2022/04/25 01:27:17;;;;;;;24.05;18.77;;;9.50;99.90;;;;;;5028349;28;20132;-80
2022/04/25 01:29:46;;;;;;;23.65;19.08;;;9.50;99.90;;;;;;5030562;28;20213;-80
2022/04/25 01:32:13;;;;;;;22.27;19.42;;;9.50;99.90;;;;;;5031701;28;20045;-80
2022/04/25 01:34:39;;;;;;;22.10;18.35;;;9.50;99.90;;;;;;5029114;28;20071;-80
2022/04/25 01:37:09;;;;;;;21.20;18.67;;;9.50;99.90;;;;;;5025002;28;20049;-80
2022/04/25 01:39:40;;;;;;;24.05;19.55;;;9.50;99.90;;;;;;5019069;28;20053;-81
2022/04/25 01:42:06;;;;;;;23.75;18.90;;;9.40;99.90;;;;;;5026273;28;20045;-80
2022/04/25 01:44:33;;;;;;;22.23;18.30;;;9.40;99.90;;;;;;5016898;28;20122;-80
2022/04/25 01:46:58;;;;;;;23.27;19.13;;;9.40;99.90;;;;;;5015593;28;20044;-80
2022/04/25 01:49:24;;;;;;;25.50;19.63;;;9.40;99.90;;;;;;5029560;28;20041;-80
2022/04/25 01:51:50;;;;;;;24.40;17.75;;;9.40;99.90;;;;;;5011325;28;20404;-80
2022/04/25 01:54:24;;;;;;;23.50;19.23;;;9.40;99.90;;;;;;5026923;28;20037;-80
2022/04/25 01:56:50;;;;;;;27.80;18.38;;;9.40;99.90;;;;;;5028248;28;20042;-80
2022/04/25 01:59:15;;;;;;;23.17;18.50;;;9.40;99.90;;;;;;5030242;28;20482;-80
2022/04/25 02:01:41;;;;;;;24.67;18.30;;;9.30;99.90;;;;;;5026334;28;20489;-80
2022/04/25 02:04:06;;;;;;;23.23;18.55;;;9.30;99.90;;;;;;5027586;28;20045;-80
2022/04/25 02:06:32;;;;;;;21.85;18.63;;;9.30;99.90;;;;;;5009568;28;20088;-81
2022/04/25 02:08:58;;;;;;;21.13;17.85;;;9.30;99.90;;;;;;5025972;28;20104;-80
2022/04/25 02:11:24;;;;;;;24.52;17.58;;;9.30;99.90;;;;;;5011939;28;20037;-80
2022/04/25 02:13:51;;;;;;;20.00;16.55;;;9.20;99.90;;;;;;5013423;28;20040;-80
2022/04/25 02:16:26;;;;;;;24.67;18.30;;;9.20;99.90;;;;;;5014961;28;20124;-81
2022/04/25 02:18:53;;;;;;;22.35;17.40;;;9.20;99.90;;;;;;5028146;28;20037;-81
2022/04/25 02:21:19;;;;;;;24.30;17.17;;;9.20;99.90;;;;;;5026685;28;20408;-81
2022/04/25 02:23:46;;;;;;;23.20;17.80;;;9.10;99.90;;;;;;5019177;28;20485;-81
2022/04/25 02:26:12;;;;;;;20.95;16.15;;;9.10;99.90;;;;;;5038703;28;20042;-81
2022/04/25 02:28:39;;;;;;;20.40;17.25;;;9.00;99.90;;;;;;5039686;28;20045;-81
2022/04/25 02:31:07;;;;;;;21.60;17.02;;;9.00;99.90;;;;;;5040189;28;20037;-82
2022/04/25 02:33:34;;;;;;;23.85;18.15;;;9.00;99.90;;;;;;5035670;28;20053;-81
2022/04/25 02:36:00;;;;;;;24.90;17.33;;;8.90;99.90;;;;;;5018458;28;20037;-80
2022/04/25 02:38:26;;;;;;;21.67;17.37;;;8.90;99.90;;;;;;5017613;28;20047;-81
2022/04/25 02:41:04;;;;;;;22.65;18.10;;;8.90;99.90;;;;;;5026083;28;20124;-81
2022/04/25 02:43:41;;;;;;;21.02;17.60;;;8.90;99.90;;;;;;5028197;28;20060;-80
2022/04/25 02:46:11;;;;;;;23.05;17.73;;;8.90;99.90;;;;;;5029477;28;20132;-79
2022/04/25 02:48:38;;;;;;;24.00;18.33;;;8.90;99.90;;;;;;5026055;28;20038;-79
2022/04/25 02:51:05;;;;;;;21.90;18.05;;;8.90;99.90;;;;;;5021796;28;20038;-80
2022/04/25 02:53:31;;;;;;;22.33;18.08;;;8.80;99.90;;;;;;5028422;28;20657;-79
2022/04/25 02:55:58;;;;;;;25.02;18.40;;;8.80;99.90;;;;;;5027272;28;20037;-79
2022/04/25 02:58:24;;;;;;;23.27;18.70;;;8.80;99.90;;;;;;5023793;28;20045;-79
2022/04/25 03:00:51;;;;;;;27.05;19.00;;;8.70;99.90;;;;;;5014561;28;20079;-80
2022/04/25 03:03:18;;;;;;;21.87;18.63;;;8.70;99.90;;;;;;5027328;28;20362;-79
2022/04/25 03:05:46;;;;;;;22.23;17.95;;;8.70;99.90;;;;;;5028185;28;20053;-79
2022/04/25 03:08:17;;;;;;;23.52;18.60;;;8.70;99.90;;;;;;5014481;28;20087;-79
2022/04/25 03:10:43;;;;;;;22.30;18.25;;;8.70;99.90;;;;;;5028247;28;20049;-79
2022/04/25 03:13:10;;;;;;;21.92;18.92;;;8.70;99.90;;;;;;5015835;28;20107;-79
2022/04/25 03:15:39;;;;;;;22.20;19.23;;;8.80;99.90;;;;;;5027433;28;20065;-79
2022/04/25 03:18:07;;;;;;;25.35;19.13;;;8.80;99.90;;;;;;5008427;28;20049;-79
2022/04/25 03:20:33;;;;;;;;;;;8.80;99.90;;;;;;5014668;28;20030;-79
2022/04/25 03:22:59;;;;;;;24.42;17.63;;;8.70;99.90;;;;;;5015051;28;19921;-80
2022/04/25 03:25:25;;;;;;;24.23;19.08;;;8.70;99.90;;;;;;5027798;28;20107;-80
2022/04/25 03:27:51;;;;;;;23.08;19.17;;;8.70;99.90;;;;;;5024617;28;20041;-79
2022/04/25 03:30:17;;;;;;;23.98;18.63;;;8.70;99.90;;;;;;5024172;28;20448;-79
2022/04/25 03:32:45;;;;;;;24.38;19.15;;;8.70;99.90;;;;;;5025326;28;20053;-78
2022/04/25 03:35:11;;;;;;;27.35;18.60;;;8.70;99.90;;;;;;5027237;28;20053;-80
2022/04/25 03:37:37;;;;;;;22.48;17.80;;;8.70;99.90;;;;;;5025029;28;20045;-79
2022/04/25 03:40:05;;;;;;;24.88;18.35;;;8.70;99.90;;;;;;5026873;28;20100;-79
2022/04/25 03:42:30;;;;;;;;;;;8.70;99.90;;;;;;5027739;28;20061;-79
2022/04/25 03:44:56;;;;;;;25.88;18.70;;;8.70;99.90;;;;;;5028805;28;19921;-80
2022/04/25 03:47:23;;;;;;;27.73;19.17;;;8.70;99.90;;;;;;5007860;28;20400;-79
2022/04/25 03:49:48;;;;;;;23.77;19.30;;;8.70;99.90;;;;;;5027951;28;20046;-79
2022/04/25 03:52:14;;;;;;;23.73;18.73;;;8.70;99.90;;;;;;5023957;28;20040;-79
2022/04/25 03:57:24;;;;;;;27.42;19.50;;;8.70;99.90;;;;;;5025733;28;20686;-80
2022/04/25 03:59:50;;;;;;;23.15;19.45;;;8.60;99.90;;;;;;5023430;28;20045;-80
2022/04/25 04:02:15;;;;;;;26.95;20.10;;;8.60;99.90;;;;;;5025272;28;20079;-80
2022/04/25 04:04:41;;;;;;;24.13;19.48;;;8.60;99.90;;;;;;5014831;28;20584;-80
2022/04/25 04:07:06;;;;;;;26.13;20.65;;;8.60;99.90;;;;;;5028017;28;20053;-80
2022/04/25 04:09:50;;;;;;;22.33;19.58;;;8.60;99.90;;;;;;5028653;28;20033;-80
2022/04/25 04:12:18;;;;;;;25.17;20.45;;;8.60;99.90;;;;;;5028080;28;20069;-80
2022/04/25 04:14:44;;;;;;;;;;;8.60;99.90;;;;;;5028244;28;20117;-80
2022/04/25 04:17:10;;;;;;;23.50;20.13;;;8.50;99.90;;;;;;5028165;28;19921;-79
2022/04/25 04:19:36;;;;;;;26.38;19.92;;;8.50;99.90;;;;;;5028835;28;20037;-78
2022/04/25 04:22:03;;;;;;;27.77;20.80;;;8.50;99.90;;;;;;5009895;28;20485;-79
2022/04/25 04:24:31;;;;;;;25.27;19.67;;;8.50;99.90;;;;;;5028957;28;20366;-79
2022/04/25 04:27:04;;;;;;;24.60;19.40;;;8.50;99.90;;;;;;5010612;28;20128;-79
2022/04/25 04:29:31;;;;;;;25.02;19.65;;;8.50;99.90;;;;;;5010037;28;20120;-78
2022/04/25 04:31:58;;;;;;;24.83;19.08;;;8.50;99.90;;;;;;5028562;28;20552;-78
2022/04/25 04:34:24;;;;;;;24.10;18.65;;;8.50;99.90;;;;;;5028574;28;20061;-79
2022/04/25 04:36:51;;;;;;;22.73;18.40;;;8.50;99.90;;;;;;5009054;28;20044;-79
2022/04/25 04:39:17;;;;;;;23.70;19.08;;;8.50;99.90;;;;;;5028051;28;20143;-78
2022/04/25 04:41:42;;;;;;;24.25;18.27;;;8.50;99.90;;;;;;5028528;28;20110;-78
2022/04/25 04:44:08;;;;;;;21.73;18.30;;;8.50;99.90;;;;;;5010341;28;20046;-78
2022/04/25 04:46:34;;;;;;;24.10;18.17;;;8.50;99.90;;;;;;5010594;28;20038;-78
2022/04/25 04:48:59;;;;;;;23.58;18.30;;;8.50;99.90;;;;;;5029332;28;20045;-78
2022/04/25 04:51:25;;;;;;;26.90;19.40;;;8.50;99.90;;;;;;5031557;28;20045;-78
2022/04/25 04:53:50;;;;;;;27.27;18.92;;;8.50;99.90;;;;;;5032576;28;20057;-79
2022/04/25 04:56:16;;;;;;;24.90;18.55;;;8.50;99.90;;;;;;5013573;28;20131;-79
2022/04/25 04:58:42;;;;;;;25.33;19.52;;;8.50;99.90;;;;;;5032614;28;20033;-79
2022/04/25 05:01:08;;;;;;;22.92;18.88;;;8.50;99.90;;;;;;5031755;28;20081;-79
2022/04/25 05:03:34;;;;;;;24.75;18.40;;;8.50;99.90;;;;;;5030678;28;20510;-79
2022/04/25 05:06:00;;;;;;;24.50;18.67;;;8.50;99.90;;;;;;5031568;28;20113;-79
2022/04/25 05:08:25;;;;;;;20.55;18.23;;;8.50;99.90;;;;;;5031294;28;20132;-78
2022/04/25 05:10:54;;;;;;;21.38;18.58;;;8.50;99.90;;;;;;5030782;28;20049;-78
2022/04/25 05:13:20;;;;;;;21.60;18.00;;;8.50;99.90;;;;;;5033194;28;20205;-78
2022/04/25 05:15:47;;;;;;;23.60;18.07;;;8.50;99.90;;;;;;5032587;28;20042;-79
2022/04/25 05:18:13;;;;;;;21.70;17.10;;;8.50;99.90;;;;;;5030931;28;20304;-78
2022/04/25 05:20:39;;;;;;;22.90;18.60;;;8.50;99.90;;;;;;5031132;28;20040;-78
2022/04/25 05:23:05;;;;;;;21.98;17.15;;;8.50;99.90;;;;;;5013307;28;20404;-78
2022/04/25 05:25:30;;;;;;;21.63;17.73;;;8.50;99.90;;;;;;5031107;28;20140;-79
2022/04/25 05:27:57;;;;;;;23.73;17.67;;;8.50;99.90;;;;;;5031358;28;20556;-81
2022/04/25 05:30:24;;;;;;;20.25;16.92;;;8.50;99.90;;;;;;5013086;28;20092;-81
2022/04/25 05:32:55;;;;;;;22.63;18.17;;;8.60;99.90;;;;;;4998346;28;20053;-84
2022/04/25 05:35:24;;;;;;;22.38;17.20;;;8.60;99.90;;;;;;5024408;28;20128;-84
2022/04/25 05:37:50;;;;;;;23.13;17.13;;;8.60;99.90;;;;;;5031510;28;20042;-85
2022/04/25 05:40:20;;;;;;;25.65;18.42;;;8.60;99.90;;;;;;5021789;28;20084;-84
2022/04/25 05:42:49;;;;;;;22.90;16.92;;;8.60;99.90;;;;;;5045532;28;20045;-84
2022/04/25 05:45:18;;;;;;;26.15;18.48;;;8.60;99.90;;;;;;5025745;28;20077;-84
2022/04/25 05:47:44;;;;;;;25.48;17.00;;;8.60;99.90;;;;;;5035429;28;20048;-84
2022/04/25 05:52:57;;;;;;;22.17;17.70;;;8.60;99.90;;;;;;5029191;28;20064;-84
2022/04/25 05:55:23;;;;;;;22.75;17.80;;;8.70;99.90;;;;;;5019100;28;20125;-79
2022/04/25 05:57:50;;;;;;;24.05;18.13;;;8.60;99.90;;;;;;5031879;28;20045;-81
2022/04/25 06:00:17;;;;;;;23.60;18.40;;;8.60;99.90;;;;;;5028385;28;20048;-81
2022/04/25 06:02:44;;;;;;;22.35;17.58;;;8.60;99.90;;;;;;5030672;28;20045;-81
2022/04/25 06:05:11;;;;;;;21.85;17.90;;;8.70;99.90;;;;;;5015344;28;20080;-81
2022/04/25 06:07:38;;;;;;;25.48;18.20;;;8.70;99.90;;;;;;5011615;28;20124;-81
2022/04/25 06:10:04;;;;;;;23.63;17.52;;;8.70;99.90;;;;;;5028100;28;20043;-81
2022/04/25 06:12:30;;;;;;;20.77;17.67;;;8.70;99.90;;;;;;5027965;28;20045;-82
2022/04/25 06:14:56;;;;;;;24.88;18.55;;;8.80;99.90;;;;;;5012415;28;20478;-81
2022/04/25 06:17:23;;;;;;;24.17;17.88;;;8.80;99.90;;;;;;5028560;28;20103;-81
2022/04/25 06:19:48;;;;;;;24.50;18.38;;;8.80;99.90;;;;;;5027063;28;20041;-82
2022/04/25 06:22:14;;;;;;;24.02;18.63;;;8.80;99.90;;;;;;5004958;28;20056;-81
2022/04/25 06:24:39;;;;;;;24.05;18.27;;;8.80;99.90;;;;;;5023331;28;20030;-81
2022/04/25 06:27:08;;;;;;;24.95;19.55;;;8.80;99.90;;;;;;5023988;28;20485;-81
2022/04/25 06:29:35;;;;;;;24.10;19.30;;;8.80;99.90;;;;;;5011472;28;20045;-81
2022/04/25 06:32:03;;;;;;;24.63;19.38;;;8.80;99.90;;;;;;5029889;28;20450;-81
2022/04/25 06:34:28;;;;;;;23.70;19.42;;;8.80;99.90;;;;;;5011394;28;20136;-81
2022/04/25 06:36:55;;;;;;;26.77;20.52;;;8.70;99.90;;;;;;5011589;28;20139;-81
2022/04/25 06:39:21;;;;;;;24.35;20.27;;;8.80;99.90;;;;;;5010066;28;20056;-81
2022/04/25 06:41:46;;;;;;;25.73;20.88;;;8.80;99.90;;;;;;5025686;28;20042;-81
2022/04/25 06:44:12;;;;;;;26.27;20.90;;;8.80;99.90;;;;;;5029397;28;20033;-81
2022/04/25 06:46:38;;;;;;;26.98;21.17;;;8.80;99.90;;;;;;5019900;28;20060;-81
2022/04/25 06:51:47;;;;;;;26.23;20.88;;;8.80;99.90;;;;;;5024688;28;20049;-81
2022/04/25 06:54:17;;;;;;;25.33;20.73;;;8.80;99.90;;;;;;5030036;28;20051;-81
2022/04/25 06:56:42;;;;;;;22.70;19.58;;;8.70;99.90;;;;;;5023088;28;20073;-81
2022/04/25 06:59:11;;;;;;;24.48;19.77;;;8.80;99.90;;;;;;5046717;28;20052;-82
2022/04/25 07:01:39;;;;;;;23.75;19.52;;;8.70;99.90;;;;;;5043640;28;20056;-82
2022/04/25 07:04:04;;;;;;;;;;;8.70;99.90;;;;;;5039973;28;20101;-79
2022/04/25 07:06:30;;;;;;;23.60;19.15;;;8.70;99.90;;;;;;5038940;28;19925;-82
2022/04/25 07:09:02;;;;;;;22.80;18.75;;;8.70;99.90;;;;;;5029254;28;20053;-79
2022/04/25 07:11:27;;;;;;;22.65;19.60;;;8.70;99.90;;;;;;5028001;28;20062;-81
2022/04/25 07:13:56;;;;;;;26.70;20.45;;;8.70;99.90;;;;;;5008235;28;20245;-82
2022/04/25 07:16:24;;;;;;;24.77;19.42;;;8.70;99.90;;;;;;5008764;28;20071;-82
2022/04/25 07:18:50;;;;;;;24.35;19.80;;;8.70;99.90;;;;;;5029394;28;20037;-83
2022/04/25 07:29:28;;;;;;;25.13;19.73;;;8.70;99.90;;;;;;5027808;28;20136;-81
2022/04/25 07:31:54;;;;;;;23.27;19.13;;;8.80;99.90;;;;;;5028027;28;20129;-80
2022/04/25 07:34:20;;;;;;;23.02;19.25;;;8.70;99.90;;;;;;5009721;28;20136;-80
2022/04/25 07:36:53;;;;;;;24.43;19.53;;;8.70;99.90;;;;;;5021756;28;20049;-80
2022/04/25 07:39:22;;;;;;;23.63;19.02;;;8.70;99.90;;;;;;5022854;28;20132;-80
2022/04/25 07:41:49;;;;;;;25.15;20.45;;;8.70;99.90;;;;;;5009811;28;20034;-82
2022/04/25 07:44:15;;;;;;;28.35;19.90;;;8.80;99.90;;;;;;5026649;28;20481;-81
2022/04/25 07:46:41;;;;;;;23.95;19.95;;;8.90;99.90;;;;;;5028395;28;20117;-84
2022/04/25 07:49:09;;;;;;;24.25;20.05;;;8.80;99.90;;;;;;5029364;28;20096;-80
2022/04/25 07:51:35;;;;;;;25.75;21.70;;;8.80;99.90;;;;;;5021661;28;20095;-80
2022/04/25 07:54:01;;;;;;;23.40;20.85;;;8.90;99.90;;;;;;5028554;28;20053;-80
2022/04/25 07:56:26;;;;;;;24.83;21.85;;;8.90;99.90;;;;;;5007760;28;20040;-79
2022/04/25 07:58:52;;;;;;;26.50;21.40;;;9.00;99.90;;;;;;5025633;28;20026;-77
2022/04/25 08:01:18;;;;;;;27.55;21.27;;;9.10;99.90;;;;;;5000730;28;20060;-81
2022/04/25 08:03:43;;;;;;;28.40;22.80;;;9.10;99.90;;;;;;5004201;28;20045;-80
2022/04/25 08:06:11;;;;;;;27.50;23.20;;;9.10;99.90;;;;;;5018572;28;20041;-80
2022/04/25 08:08:36;;;;;;;;;;;9.10;99.90;;;;;;5022851;28;20440;-81
2022/04/25 08:11:02;;;;;;;30.15;24.60;;;9.20;99.90;;;;;;5026160;28;19921;-79
2022/04/25 08:18:58;;;;;;;31.05;26.00;;;9.10;99.90;;;;;;5026544;28;20046;-78
2022/04/25 08:21:24;;;;;;;30.27;26.27;;;9.20;99.90;;;;;;5006236;28;20524;-83
2022/04/25 08:23:50;;;;;;;31.67;26.77;;;9.20;99.90;;;;;;5006129;28;20042;-76
2022/04/25 08:26:15;;;;;;;31.70;26.30;;;9.20;99.90;;;;;;5005746;28;20045;-75
2022/04/25 08:28:41;;;;;;;31.83;26.42;;;9.20;99.90;;;;;;5037139;28;20077;-78
2022/04/25 08:31:09;;;;;;;31.13;27.75;;;9.10;99.90;;;;;;5030698;28;20088;-85
2022/04/25 08:33:36;;;;;;;31.00;27.08;;;9.10;99.90;;;;;;5028064;28;20128;-81
2022/04/25 08:36:03;;;;;;;32.30;26.70;;;9.10;99.90;;;;;;5034378;28;20046;-79
2022/04/25 08:38:29;;;;;;;32.63;26.48;;;9.20;99.90;;;;;;5008093;28;20132;-74
2022/04/25 08:40:55;;;;;;;31.50;25.67;;;9.10;99.90;;;;;;5030876;28;20116;-77
2022/04/25 08:43:22;;;;;;;30.20;24.65;;;9.20;99.90;;;;;;5012776;28;20045;-73
2022/04/25 08:45:49;;;;;;;28.23;22.85;;;9.20;99.90;;;;;;5008664;28;20141;-75
2022/04/25 08:48:15;;;;;;;28.25;23.35;;;9.20;99.90;;;;;;5012074;28;20045;-80
2022/04/25 08:50:41;;;;;;;29.25;23.17;;;9.20;99.90;;;;;;5031727;28;20050;-78
2022/04/25 08:53:08;;;;;;;32.80;23.02;;;9.10;99.90;;;;;;5008875;28;20072;-79
2022/04/25 08:55:34;;;;;;;27.48;23.95;;;9.10;99.90;;;;;;5032575;28;20079;-79
2022/04/25 08:58:02;;;;;;;26.13;22.60;;;9.10;99.90;;;;;;5020159;28;20069;-76
2022/04/25 09:00:28;;;;;;;;;;;9.00;99.90;;;;;;5009072;28;20047;-73
2022/04/25 09:02:54;;;;;;;26.83;22.00;;;9.00;99.90;;;;;;5028482;28;20008;-78
2022/04/25 09:05:21;;;;;;;31.45;22.45;;;9.00;99.90;;;;;;5007121;28;20045;-82
2022/04/25 09:07:47;;;;;;;26.33;22.03;;;9.00;99.90;;;;;;5030415;28;20038;-80
2022/04/25 09:10:18;;;;;;;26.33;21.67;;;9.00;99.90;;;;;;5028351;28;20025;-81
2022/04/25 09:12:46;;;;;;;24.88;21.50;;;9.10;99.90;;;;;;5025544;28;20133;-81
2022/04/25 09:15:12;;;;;;;25.65;20.77;;;9.10;99.90;;;;;;5010461;28;20628;-80
2022/04/25 09:17:38;;;;;;;27.98;22.83;;;9.20;99.90;;;;;;5027999;28;20041;-80
2022/04/25 09:20:08;;;;;;;28.92;22.65;;;9.30;99.90;;;;;;5031934;28;20129;-81
2022/04/25 09:22:36;;;;;;;27.58;22.05;;;9.30;99.90;;;;;;5031011;28;20072;-80
2022/04/25 09:25:16;;;;;;;25.50;20.15;;;9.30;99.90;;;;;;5027501;28;20077;-78
2022/04/25 09:27:42;;;;;;;22.08;19.63;;;9.30;99.90;;;;;;5030585;28;20057;-84
2022/04/25 09:30:19;;;;;;;24.98;21.00;;;9.30;99.90;;;;;;5029510;28;20103;-79
2022/04/25 09:32:54;;;;;;;26.45;20.90;;;9.30;99.90;;;;;;5000476;28;20045;-80
2022/04/25 09:35:41;;;;;;;27.35;20.52;;;9.30;99.90;;;;;;5007744;28;20049;-80
2022/04/25 09:38:10;;;;;;;24.35;18.77;;;9.40;99.90;;;;;;5020956;28;20033;-80
2022/04/25 09:40:38;;;;;;;22.73;18.15;;;9.40;99.90;;;;;;5025730;28;20648;-83
2022/04/25 09:43:04;;;;;;;22.13;18.27;;;9.40;99.90;;;;;;5028112;28;20195;-83
2022/04/25 09:45:30;;;;;;;22.70;19.45;;;9.40;99.90;;;;;;5031181;28;20089;-80
2022/04/25 09:47:57;;;;;;;23.23;18.80;;;9.50;99.90;;;;;;5028743;28;20045;-75
2022/04/25 09:50:27;;;;;;;26.10;19.83;;;9.50;99.90;;;;;;5029043;28;20396;-80
2022/04/25 09:52:55;;;;;;;24.45;18.73;;;9.50;99.90;;;;;;4995044;28;20397;-79
2022/04/25 09:55:22;;;;;;;24.67;19.20;;;9.50;99.90;;;;;;5021643;28;20038;-77
2022/04/25 09:57:50;;;;;;;22.65;19.38;;;9.50;99.90;;;;;;5031879;28;20044;-76
2022/04/25 10:00:37;;;;;;;25.17;18.33;;;9.50;99.90;;;;;;5025383;28;20386;-81
2022/04/25 10:03:04;;;;;;;22.75;18.65;;;9.60;99.90;;;;;;5028823;28;20041;-78
2022/04/25 10:05:40;;;;;;;22.35;17.63;;;9.60;99.90;;;;;;5028043;28;20052;-76
2022/04/25 10:08:08;;;;;;;22.55;18.25;;;9.60;99.90;;;;;;5027309;28;20094;-78
2022/04/25 10:10:35;;;;;;;23.58;19.27;;;9.60;99.90;;;;;;5011453;28;20224;-78
2022/04/25 10:13:01;;;;;;;28.00;20.08;;;9.70;99.90;;;;;;5011208;28;20064;-76
2022/04/25 10:15:27;;;;;;;24.83;19.83;;;9.70;99.90;;;;;;5030566;28;20099;-79
2022/04/25 10:17:54;;;;;;;22.10;18.42;;;9.70;99.90;;;;;;5010989;28;20506;-80
2022/04/25 10:20:20;;;;;;;28.02;21.63;;;9.70;99.90;;;;;;5010351;28;20172;-84
2022/04/25 10:22:46;;;;;;;30.13;21.35;;;9.70;99.90;;;;;;5008245;28;20250;-83
2022/04/25 10:25:12;;;;;;;26.67;21.55;;;9.80;99.90;;;;;;5031085;28;20132;-85
2022/04/25 10:27:42;;;;;;;28.83;22.52;;;9.70;99.90;;;;;;5010026;28;20124;-84
2022/04/25 10:30:16;;;;;;;27.52;23.05;;;9.80;99.90;;;;;;5001905;28;20041;-84
2022/04/25 10:32:42;;;;;;;26.55;21.52;;;9.80;99.90;;;;;;5000739;28;20060;-79
2022/04/25 10:35:14;;;;;;;28.55;21.75;;;9.80;99.90;;;;;;5025731;28;20048;-80
2022/04/25 10:37:43;;;;;;;26.85;21.48;;;9.80;99.90;;;;;;5010522;28;20067;-87
2022/04/25 10:40:14;;;;;;;24.52;19.77;;;9.90;99.90;;;;;;5010025;28;20049;-86
2022/04/25 10:46:00;;;;;;;23.00;19.48;;;10.00;99.90;;;;;;5022582;28;20077;-80
2022/04/25 10:48:27;;;;;;;22.15;18.60;;;10.00;99.90;;;;;;5014097;28;20099;-81
2022/04/25 10:51:10;;;;;;;23.20;19.05;;;10.10;99.90;;;;;;5008945;28;20042;-81
2022/04/25 10:54:01;;;;;;;21.67;18.27;;;10.10;99.90;;;;;;5009961;28;20647;-81
2022/04/25 10:56:28;;;;;;;19.73;17.38;;;10.10;99.90;;;;;;5010694;28;20054;-80
2022/04/25 10:59:25;;;;;;;22.45;17.90;;;10.20;99.90;;;;;;5012513;28;20061;-81
2022/04/25 11:01:52;;;;;;;18.92;16.80;;;10.20;99.90;;;;;;5009918;28;20835;-82
2022/04/25 11:04:19;;;;;;;21.83;16.73;;;10.20;99.90;;;;;;5027313;28;20261;-83
2022/04/25 11:06:45;;;;;;;19.35;15.90;;;10.20;99.90;;;;;;5027100;28;20052;-78
2022/04/25 11:09:11;;;;;;;21.75;16.52;;;10.20;99.90;;;;;;5028526;28;20153;-79
2022/04/25 11:11:47;;;;;;;18.45;16.30;;;10.20;99.90;;;;;;5025332;28;20108;-81
2022/04/25 11:14:14;;;;;;;18.23;15.77;;;10.20;99.90;;;;;;5003788;28;20088;-81
2022/04/25 11:16:41;;;;;;;19.75;14.55;;;10.20;99.90;;;;;;5022455;28;20498;-80
2022/04/25 11:19:14;;;;;;;21.90;15.98;;;10.20;99.90;;;;;;5027100;28;20045;-77
2022/04/25 11:21:49;;;;;;;20.27;15.90;;;10.20;99.90;;;;;;5027192;28;20053;-75
2022/04/25 11:24:38;;;;;;;22.38;15.60;;;10.10;99.90;;;;;;5030083;28;20052;-75
2022/04/25 11:27:11;;;;;;;20.00;15.70;;;10.10;99.90;;;;;;5028185;28;20052;-75
2022/04/25 11:29:44;;;;;;;19.38;15.75;;;10.10;99.90;;;;;;5019621;28;20045;-79
2022/04/25 11:32:40;;;;;;;21.02;16.65;;;10.10;99.90;;;;;;5031914;28;20096;-80
2022/04/25 11:35:07;;;;;;;18.42;15.90;;;10.10;99.90;;;;;;5007984;28;20057;-80
2022/04/25 11:37:34;;;;;;;19.95;16.08;;;10.10;99.90;;;;;;5009213;28;20042;-78
2022/04/25 11:40:06;;;;;;;18.20;16.30;;;10.20;99.90;;;;;;5010446;28;20045;-80
2022/04/25 11:42:34;;;;;;;19.35;15.70;;;10.20;99.90;;;;;;5029300;28;20056;-80
2022/04/25 11:45:01;;;;;;;19.02;16.30;;;10.30;99.90;;;;;;5028037;28;20045;-79
2022/04/25 11:47:29;;;;;;;17.90;15.25;;;10.30;99.90;;;;;;5026395;28;20041;-78
2022/04/25 11:49:56;;;;;;;20.45;15.77;;;10.30;99.90;;;;;;5010335;28;20049;-76
2022/04/25 11:52:22;;;;;;;18.58;14.57;;;10.40;99.90;;;;;;5027368;28;20125;-76
2022/04/25 11:54:48;;;;;;;17.45;15.40;;;10.40;99.90;;;;;;5008876;28;20041;-79
2022/04/25 11:57:13;;;;;;;18.92;15.80;;;10.50;99.90;;;;;;5010725;28;20053;-81
2022/04/25 11:59:39;;;;;;;18.20;16.00;;;10.50;99.90;;;;;;5022054;28;20041;-86
2022/04/25 12:02:05;;;;;;;17.95;15.93;;;10.60;99.90;;;;;;5010342;28;20038;-80
2022/04/25 12:04:33;;;;;;;17.38;15.27;;;10.70;99.90;;;;;;5010091;28;20041;-80
2022/04/25 12:07:02;;;;;;;19.40;15.75;;;10.80;99.90;;;;;;5009933;28;20042;-83
2022/04/25 12:15:34;;;;;;;17.77;15.70;;;10.80;99.90;;;;;;5010539;28;20057;-81
2022/04/25 12:15:38;;;;;;;18.52;16.25;;;10.80;99.90;;;;;;5026579;28;20055;-79
2022/04/25 12:18:23;;;;;;;18.30;16.30;;;10.80;99.90;;;;;;5018778;28;20516;-85
2022/04/25 12:20:51;;;;;;;19.95;16.60;;;10.70;99.90;;;;;;5017770;28;20070;-84
2022/04/25 12:23:22;;;;;;;20.05;16.85;;;10.70;99.90;;;;;;5028373;28;20091;-84
2022/04/25 12:25:47;;;;;;;20.35;17.73;;;10.70;99.90;;;;;;5011150;28;20068;-84
2022/04/25 12:28:13;;;;;;;20.40;17.13;;;10.60;99.90;;;;;;5026768;28;20080;-84
2022/04/25 12:31:11;;;;;;;21.58;17.70;;;10.60;99.90;;;;;;5026771;28;20117;-85
2022/04/25 12:33:38;;;;;;;19.55;17.55;;;10.60;99.90;;;;;;4955736;28;20053;-79
2022/04/25 12:36:19;;;;;;;21.75;18.67;;;10.50;99.90;;;;;;5024401;28;20053;-78
2022/04/25 12:38:59;;;;;;;23.20;20.08;;;10.50;99.90;;;;;;5007142;28;20087;-77
2022/04/25 12:41:25;;;;;;;23.38;19.52;;;10.60;99.90;;;;;;5020307;28;20116;-78
2022/04/25 12:43:54;;;;;;;21.67;19.37;;;10.50;99.90;;;;;;5011225;28;20133;-74
2022/04/25 12:46:47;;;;;;;23.38;19.35;;;10.60;99.90;;;;;;5006869;28;20049;-80
2022/04/25 12:49:22;;;;;;;21.55;19.33;;;10.60;99.90;;;;;;5000946;28;20124;-80
2022/04/25 12:51:51;;;;;;;23.05;19.45;;;10.60;99.90;;;;;;5016444;28;20076;-83
2022/04/25 12:54:43;;;;;;;23.05;19.65;;;10.70;99.90;;;;;;5017169;28;20172;-82
2022/04/25 12:57:12;;;;;;;20.42;18.23;;;10.70;99.90;;;;;;5018040;28;20536;-81
2022/04/25 12:59:38;;;;;;;23.05;19.20;;;10.80;99.90;;;;;;5020258;28;20053;-81
2022/04/25 13:02:07;;;;;;;22.30;19.25;;;10.80;99.90;;;;;;5004631;28;20136;-80
2022/04/25 13:04:52;;;;;;;22.88;20.35;;;10.80;99.90;;;;;;4999858;28;20050;-79
2022/04/25 13:07:37;;;;;;;23.27;20.42;;;10.80;99.90;;;;;;5003197;28;20053;-76
2022/04/25 13:10:06;;;;;;;22.42;20.05;;;10.80;99.90;;;;;;5007993;28;20044;-79
2022/04/25 13:12:33;;;;;;;24.67;19.17;;;10.80;99.90;;;;;;5031182;28;20361;-78